Time;durP1;ratioP1;P1;durP2;ratioP2;P2;SDS_P1;SDS_P2;PMS_P1;PMS_P2;Temp;Humidity;BMP_temperature;BMP_pressure;BME280_temperature;BME280_humidity;BME280_pressure;Samples;Min_cycle;Max_cycle;Signal;HPM_P1;HPM_P2
2021/09/05 05:03:20;;;;;;;7.72;4.38;;;;;;;;;;4986813;23;20052;-84
2021/09/05 05:05:46;;;;;;;7.13;3.77;;;;;;;;;;4842370;29;20034;-83
2021/09/05 05:08:11;;;;;;;8.27;4.27;;;;;;;;;;4829211;29;20462;-84
2021/09/05 05:10:36;;;;;;;9.67;4.53;;;;;;;;;;4844104;29;20082;-84
2021/09/05 05:13:02;;;;;;;7.75;3.72;;;;;;;;;;4843423;29;20112;-84
2021/09/05 05:15:27;;;;;;;7.87;3.80;;;;;;;;;;4866080;23;20064;-83
2021/09/05 05:17:53;;;;;;;7.53;3.57;;;;;;;;;;4881846;29;20085;-83
2021/09/05 05:20:18;;;;;;;9.53;3.63;;;;;;;;;;4866731;29;20385;-84
2021/09/05 05:22:44;;;;;;;6.67;3.40;;;;;;;;;;4850817;29;20033;-83
2021/09/05 05:25:09;;;;;;;8.53;3.17;;;;;;;;;;4851246;29;20063;-83
2021/09/05 05:27:35;;;;;;;6.47;3.53;;;;;;;;;;4866603;29;20718;-83
2021/09/05 05:30:00;;;;;;;6.00;2.90;;;;;;;;;;4866597;29;20067;-83
2021/09/05 05:32:26;;;;;;;7.30;3.17;;;;;;;;;;4866323;29;20035;-83
2021/09/05 05:34:51;;;;;;;6.67;3.03;;;;;;;;;;4866442;29;20031;-84
2021/09/05 05:37:16;;;;;;;6.80;3.20;;;;;;;;;;4851002;29;20470;-83
2021/09/05 05:39:42;;;;;;;6.00;2.90;;;;;;;;;;4866409;29;20028;-83
2021/09/05 05:42:07;;;;;;;6.10;3.20;;;;;;;;;;4866067;29;20076;-84
2021/09/05 05:44:32;;;;;;;5.97;2.80;;;;;;;;;;4866185;29;20025;-84
2021/09/05 05:46:58;;;;;;;8.23;3.50;;;;;;;;;;4866257;29;20025;-83
2021/09/05 05:49:23;;;;;;;6.70;2.90;;;;;;;;;;4866584;29;20038;-84
2021/09/05 05:51:48;;;;;;;5.33;3.03;;;;;;;;;;4865380;29;20033;-84
2021/09/05 05:54:17;;;;;;;6.90;3.03;;;;;;;;;;4866186;29;20504;-84
2021/09/05 05:56:43;;;;;;;6.25;2.95;;;;;;;;;;4866734;29;20028;-84
2021/09/05 05:59:09;;;;;;;5.57;2.88;;;;;;;;;;4866246;29;20028;-84
2021/09/05 06:01:34;;;;;;;5.53;2.90;;;;;;;;;;4865618;29;20115;-84
2021/09/05 06:04:00;;;;;;;5.10;2.70;;;;;;;;;;4866162;29;20027;-84
2021/09/05 06:06:27;;;;;;;4.80;2.60;;;;;;;;;;4865810;29;20028;-84
2021/09/05 06:08:52;;;;;;;8.02;2.90;;;;;;;;;;4866404;29;20088;-84
2021/09/05 06:11:18;;;;;;;6.17;3.10;;;;;;;;;;4865550;29;20033;-84
2021/09/05 06:13:43;;;;;;;8.60;3.20;;;;;;;;;;4865964;29;20382;-84
2021/09/05 06:16:09;;;;;;;7.43;3.43;;;;;;;;;;4850322;29;20067;-84
2021/09/05 06:18:34;;;;;;;6.63;3.27;;;;;;;;;;4865784;29;20043;-84
2021/09/05 06:20:59;;;;;;;5.67;3.03;;;;;;;;;;4849957;29;20029;-85
2021/09/05 06:23:25;;;;;;;8.13;3.50;;;;;;;;;;4865315;29;20412;-85
2021/09/05 06:25:50;;;;;;;6.53;3.60;;;;;;;;;;4865695;29;20033;-84
2021/09/05 06:28:15;;;;;;;6.40;3.50;;;;;;;;;;4850121;29;20028;-85
2021/09/05 06:30:41;;;;;;;7.07;3.30;;;;;;;;;;4865811;29;20552;-85
2021/09/05 06:33:06;;;;;;;5.80;3.33;;;;;;;;;;4849663;29;20035;-85
2021/09/05 06:35:31;;;;;;;7.63;3.67;;;;;;;;;;4850128;29;20462;-85
2021/09/05 06:37:57;;;;;;;7.23;3.93;;;;;;;;;;4865237;29;20035;-85
2021/09/05 06:40:22;;;;;;;7.40;3.77;;;;;;;;;;4865470;29;20060;-85
2021/09/05 06:42:48;;;;;;;7.23;3.63;;;;;;;;;;4849850;29;20469;-85
2021/09/05 06:45:13;;;;;;;7.53;3.60;;;;;;;;;;4865235;29;20032;-85
2021/09/05 06:47:38;;;;;;;7.17;4.03;;;;;;;;;;4865087;29;20111;-85
2021/09/05 06:50:04;;;;;;;7.60;3.60;;;;;;;;;;4864927;29;20032;-86
2021/09/05 06:52:30;;;;;;;6.57;3.08;;;;;;;;;;4849447;29;20127;-85
2021/09/05 06:54:56;;;;;;;7.05;3.50;;;;;;;;;;4864858;29;20028;-86
2021/09/05 06:57:21;;;;;;;5.78;3.58;;;;;;;;;;4864901;29;20039;-86
2021/09/05 06:59:47;;;;;;;6.28;3.50;;;;;;;;;;4849514;29;20033;-86
2021/09/05 07:02:16;;;;;;;9.50;3.47;;;;;;;;;;4864956;29;20035;-86
2021/09/05 07:04:42;;;;;;;6.75;3.63;;;;;;;;;;4865756;29;20374;-86
2021/09/05 07:07:07;;;;;;;6.93;3.60;;;;;;;;;;4864815;29;20087;-86
2021/09/05 07:09:33;;;;;;;4.88;3.30;;;;;;;;;;4864926;29;20067;-86
2021/09/05 07:11:58;;;;;;;5.18;3.17;;;;;;;;;;4864600;29;20024;-86
2021/09/05 07:14:24;;;;;;;6.60;3.30;;;;;;;;;;4864626;29;20032;-87
2021/09/05 07:16:49;;;;;;;4.88;3.03;;;;;;;;;;4864535;29;20093;-86
2021/09/05 07:19:15;;;;;;;5.35;3.42;;;;;;;;;;4849314;29;20032;-86
2021/09/05 07:21:40;;;;;;;6.82;3.33;;;;;;;;;;4864582;29;20020;-87
2021/09/05 07:24:05;;;;;;;7.30;3.45;;;;;;;;;;4864880;29;20469;-87
2021/09/05 07:26:31;;;;;;;7.28;3.60;;;;;;;;;;4864481;29;20024;-87
2021/09/05 07:28:56;;;;;;;5.15;3.25;;;;;;;;;;4864607;29;20028;-86
2021/09/05 07:31:22;;;;;;;6.35;3.17;;;;;;;;;;4864654;29;20109;-87
2021/09/05 07:33:47;;;;;;;5.75;3.53;;;;;;;;;;4863898;29;20024;-87
2021/09/05 07:36:12;;;;;;;5.47;3.50;;;;;;;;;;4864288;29;20029;-87
2021/09/05 07:38:38;;;;;;;5.53;3.90;;;;;;;;;;4848475;29;20024;-87
2021/09/05 07:41:03;;;;;;;7.30;3.63;;;;;;;;;;4863827;29;20113;-87
2021/09/05 07:43:28;;;;;;;5.50;3.42;;;;;;;;;;4864657;29;20026;-88
2021/09/05 07:45:54;;;;;;;5.20;3.42;;;;;;;;;;4864050;29;20096;-87
2021/09/05 07:48:19;;;;;;;5.68;3.40;;;;;;;;;;4848855;29;20024;-87
2021/09/05 07:50:44;;;;;;;6.07;3.58;;;;;;;;;;4864143;29;20036;-87
2021/09/05 07:53:10;;;;;;;5.20;3.50;;;;;;;;;;4863983;29;20366;-87
2021/09/05 07:55:35;;;;;;;4.80;3.47;;;;;;;;;;4864026;29;20024;-87
2021/09/05 07:58:01;;;;;;;8.25;3.50;;;;;;;;;;4864216;29;20028;-87
2021/09/05 08:00:26;;;;;;;5.68;3.20;;;;;;;;;;4864158;29;20456;-87
2021/09/05 08:02:51;;;;;;;4.65;3.20;;;;;;;;;;4863991;29;20073;-87
2021/09/05 08:05:17;;;;;;;5.43;3.40;;;;;;;;;;4879602;29;20104;-84
2021/09/05 08:07:42;;;;;;;5.45;3.00;;;;;;;;;;4864242;29;20032;-85
2021/09/05 08:10:08;;;;;;;5.07;3.25;;;;;;;;;;4864102;29;20032;-84
2021/09/05 08:12:33;;;;;;;5.63;3.38;;;;;;;;;;4863611;29;20478;-84
2021/09/05 08:14:58;;;;;;;4.63;3.08;;;;;;;;;;4863897;29;20031;-84
2021/09/05 08:17:24;;;;;;;5.43;3.22;;;;;;;;;;4863245;29;20436;-85
2021/09/05 08:19:50;;;;;;;4.60;3.03;;;;;;;;;;4863672;29;20035;-84
2021/09/05 08:22:17;;;;;;;7.93;2.95;;;;;;;;;;4863680;29;20024;-84
2021/09/05 08:24:42;;;;;;;4.03;2.90;;;;;;;;;;4863897;29;20024;-85
2021/09/05 08:27:07;;;;;;;4.00;2.90;;;;;;;;;;4863518;29;20495;-84
2021/09/05 08:29:33;;;;;;;4.78;2.95;;;;;;;;;;4863670;29;20025;-84
2021/09/05 08:31:58;;;;;;;5.35;3.05;;;;;;;;;;4847654;29;20024;-84
2021/09/05 08:34:24;;;;;;;4.88;3.25;;;;;;;;;;4863445;29;20453;-84
2021/09/05 08:36:49;;;;;;;5.55;2.80;;;;;;;;;;4863525;29;20031;-85
2021/09/05 08:39:14;;;;;;;6.03;3.00;;;;;;;;;;4863662;29;20033;-84
2021/09/05 08:41:40;;;;;;;4.30;2.65;;;;;;;;;;4863336;29;20413;-84
2021/09/05 08:44:05;;;;;;;5.63;3.10;;;;;;;;;;4863479;29;20524;-85
2021/09/05 08:46:30;;;;;;;4.65;2.80;;;;;;;;;;4878672;29;20035;-84
2021/09/05 08:48:56;;;;;;;4.65;2.75;;;;;;;;;;4863543;29;20100;-84
2021/09/05 08:51:21;;;;;;;5.00;2.80;;;;;;;;;;4866196;29;20028;-84
2021/09/05 08:53:47;;;;;;;4.47;2.72;;;;;;;;;;4867272;29;20035;-84
2021/09/05 08:56:12;;;;;;;5.20;3.10;;;;;;;;;;4867362;29;20028;-85
2021/09/05 08:58:38;;;;;;;5.93;3.13;;;;;;;;;;4851869;29;20115;-84
2021/09/05 09:01:20;;;;;;;4.68;3.00;;;;;;;;;;4851103;29;20088;-84
2021/09/05 09:03:46;;;;;;;5.43;3.00;;;;;;;;;;4851953;29;20056;-84
2021/09/05 09:06:17;;;;;;;4.93;3.20;;;;;;;;;;4867008;29;20067;-84
2021/09/05 09:08:42;;;;;;;4.82;2.85;;;;;;;;;;4851625;29;20115;-84
2021/09/05 09:11:07;;;;;;;4.88;3.20;;;;;;;;;;4866800;29;20388;-84
2021/09/05 09:13:37;;;;;;;4.60;3.03;;;;;;;;;;4851315;29;20031;-84
2021/09/05 09:16:10;;;;;;;5.75;2.75;;;;;;;;;;4882443;29;20036;-84
2021/09/05 09:18:37;;;;;;;6.45;3.00;;;;;;;;;;4851770;29;20079;-85
2021/09/05 09:21:09;;;;;;;5.65;3.20;;;;;;;;;;4866804;29;20084;-84
2021/09/05 09:23:35;;;;;;;4.93;2.95;;;;;;;;;;4867517;29;20061;-84
2021/09/05 09:26:03;;;;;;;5.35;2.80;;;;;;;;;;4866459;29;20474;-84
2021/09/05 09:28:43;;;;;;;6.55;3.03;;;;;;;;;;4882051;29;20303;-84
2021/09/05 09:31:13;;;;;;;6.45;3.10;;;;;;;;;;4867200;29;20516;-85
2021/09/05 09:33:38;;;;;;;4.80;2.78;;;;;;;;;;4897445;29;20028;-84
2021/09/05 09:36:04;;;;;;;4.68;2.90;;;;;;;;;;4866801;29;20370;-84
2021/09/05 09:38:30;;;;;;;5.15;3.13;;;;;;;;;;4866630;29;20025;-84
2021/09/05 09:41:12;;;;;;;5.20;3.08;;;;;;;;;;4866441;29;20378;-84
2021/09/05 09:43:54;;;;;;;6.05;2.97;;;;;;;;;;4851558;29;20498;-84
2021/09/05 09:46:24;;;;;;;5.60;2.92;;;;;;;;;;4851970;29;20032;-85
2021/09/05 09:48:50;;;;;;;4.63;3.10;;;;;;;;;;4866864;29;20125;-84
2021/09/05 09:51:16;;;;;;;4.65;2.70;;;;;;;;;;4865673;29;20055;-84
2021/09/05 09:53:42;;;;;;;5.28;3.00;;;;;;;;;;4866065;29;20477;-84
2021/09/05 09:56:08;;;;;;;4.45;2.90;;;;;;;;;;4866124;29;20405;-84
2021/09/05 09:58:34;;;;;;;4.60;2.75;;;;;;;;;;4866218;29;20028;-84
2021/09/05 10:00:59;;;;;;;5.32;2.90;;;;;;;;;;4865567;29;20039;-84
2021/09/05 10:03:24;;;;;;;3.75;2.60;;;;;;;;;;4866184;29;20039;-85
2021/09/05 10:05:50;;;;;;;5.40;2.92;;;;;;;;;;4865849;29;20029;-84
2021/09/05 10:08:15;;;;;;;4.75;2.88;;;;;;;;;;4850923;29;20529;-84
2021/09/05 10:10:41;;;;;;;5.15;3.10;;;;;;;;;;4865936;29;20054;-84
2021/09/05 10:13:06;;;;;;;4.50;2.70;;;;;;;;;;4865792;29;20032;-83
2021/09/05 10:15:31;;;;;;;4.82;2.88;;;;;;;;;;4865736;29;20043;-83
2021/09/05 10:17:57;;;;;;;5.40;2.95;;;;;;;;;;4865899;29;20116;-83
2021/09/05 10:20:23;;;;;;;5.75;3.25;;;;;;;;;;4865775;29;20035;-86
2021/09/05 10:22:49;;;;;;;6.38;3.20;;;;;;;;;;4865444;29;20028;-86
2021/09/05 10:25:16;;;;;;;6.28;3.50;;;;;;;;;;4865897;29;20241;-86
2021/09/05 10:27:46;;;;;;;6.57;3.45;;;;;;;;;;4866321;29;20115;-86
2021/09/05 10:30:13;;;;;;;8.80;3.25;;;;;;;;;;4865895;29;20398;-86
2021/09/05 10:32:55;;;;;;;5.90;3.30;;;;;;;;;;4850251;29;20025;-86
2021/09/05 10:35:46;;;;;;;7.28;3.55;;;;;;;;;;4851096;29;20120;-85
2021/09/05 10:38:11;;;;;;;6.45;3.50;;;;;;;;;;4881217;29;20048;-85
2021/09/05 10:40:40;;;;;;;8.10;3.67;;;;;;;;;;4897634;29;20052;-85
2021/09/05 10:43:05;;;;;;;5.63;3.28;;;;;;;;;;4880330;29;20421;-85
2021/09/05 10:45:31;;;;;;;6.60;3.50;;;;;;;;;;4865257;29;20064;-85
2021/09/05 10:47:57;;;;;;;6.25;3.47;;;;;;;;;;4865275;29;20024;-85
2021/09/05 10:50:32;;;;;;;5.87;3.53;;;;;;;;;;4865195;29;20084;-85
2021/09/05 10:53:17;;;;;;;6.15;3.30;;;;;;;;;;4880550;29;20037;-85
2021/09/05 10:56:05;;;;;;;6.43;3.22;;;;;;;;;;4864986;29;20029;-85
2021/09/05 10:58:38;;;;;;;5.70;3.38;;;;;;;;;;4871817;29;20040;-86
2021/09/05 11:01:09;;;;;;;5.15;3.03;;;;;;;;;;4864358;29;20028;-85
2021/09/05 11:04:07;;;;;;;5.25;3.00;;;;;;;;;;4895926;29;20120;-86
2021/09/05 11:06:33;;;;;;;6.55;3.42;;;;;;;;;;4882685;29;20031;-85
2021/09/05 11:09:17;;;;;;;6.03;3.20;;;;;;;;;;4865118;29;20469;-85
2021/09/05 11:11:56;;;;;;;5.53;2.92;;;;;;;;;;4896947;29;20028;-85
2021/09/05 11:14:37;;;;;;;7.43;3.30;;;;;;;;;;4849334;29;20076;-86
2021/09/05 11:17:08;;;;;;;5.57;2.97;;;;;;;;;;4895161;23;20045;-86
2021/09/05 11:19:42;;;;;;;5.70;3.33;;;;;;;;;;4877881;29;20512;-86
2021/09/05 11:22:08;;;;;;;6.32;3.25;;;;;;;;;;4847046;29;20033;-86
2021/09/05 11:24:34;;;;;;;6.20;3.13;;;;;;;;;;4847171;29;20088;-86
2021/09/05 11:27:00;;;;;;;6.20;3.08;;;;;;;;;;4846076;29;20190;-86
2021/09/05 11:29:26;;;;;;;6.80;3.15;;;;;;;;;;4846789;29;20057;-86
2021/09/05 11:31:51;;;;;;;5.90;3.55;;;;;;;;;;4845722;29;20075;-86
2021/09/05 11:34:16;;;;;;;6.70;3.43;;;;;;;;;;4846552;29;20021;-86
2021/09/05 11:36:43;;;;;;;5.27;3.20;;;;;;;;;;4846284;29;20161;-86
2021/09/05 11:39:08;;;;;;;6.47;3.53;;;;;;;;;;4846133;29;20028;-86
2021/09/05 11:41:34;;;;;;;5.20;3.23;;;;;;;;;;4845338;29;20079;-87
2021/09/05 11:43:59;;;;;;;7.43;3.80;;;;;;;;;;4846299;29;20478;-86
2021/09/05 11:46:24;;;;;;;6.17;3.60;;;;;;;;;;4846333;29;20029;-86
2021/09/05 11:48:57;;;;;;;5.27;3.07;;;;;;;;;;4846100;29;20025;-86
2021/09/05 11:51:23;;;;;;;7.68;3.30;;;;;;;;;;4845873;29;20035;-87
2021/09/05 11:54:05;;;;;;;6.55;3.60;;;;;;;;;;4845633;29;20021;-86
2021/09/05 11:56:31;;;;;;;5.97;3.33;;;;;;;;;;4861463;29;20371;-86
2021/09/05 11:59:12;;;;;;;5.22;2.90;;;;;;;;;;4845778;29;20077;-86
2021/09/05 12:01:56;;;;;;;6.95;3.10;;;;;;;;;;4846080;29;20048;-86
2021/09/05 12:04:21;;;;;;;5.15;2.88;;;;;;;;;;4845663;29;20032;-86
2021/09/05 12:06:47;;;;;;;7.23;3.00;;;;;;;;;;4846057;29;20029;-87
2021/09/05 12:09:13;;;;;;;5.07;3.03;;;;;;;;;;4845926;29;20104;-86
2021/09/05 12:11:57;;;;;;;5.25;3.05;;;;;;;;;;4845431;29;20413;-86
2021/09/05 12:14:33;;;;;;;6.60;3.08;;;;;;;;;;4861197;29;20035;-86
2021/09/05 12:16:58;;;;;;;8.27;3.28;;;;;;;;;;4846218;29;20033;-86
2021/09/05 12:19:24;;;;;;;6.70;3.38;;;;;;;;;;4845632;29;20040;-86
2021/09/05 12:21:59;;;;;;;6.00;3.40;;;;;;;;;;4845717;29;20039;-86
2021/09/05 12:24:25;;;;;;;7.07;3.70;;;;;;;;;;4846244;29;20482;-86
2021/09/05 12:26:51;;;;;;;5.90;3.27;;;;;;;;;;4845155;29;20085;-86
2021/09/05 12:29:26;;;;;;;8.03;3.50;;;;;;;;;;4845095;29;20282;-86
2021/09/05 12:31:52;;;;;;;5.72;3.30;;;;;;;;;;4845214;29;20353;-85
2021/09/05 12:34:39;;;;;;;6.20;3.27;;;;;;;;;;4844975;29;20490;-86
2021/09/05 12:37:18;;;;;;;5.95;3.53;;;;;;;;;;4876103;29;20041;-86
2021/09/05 12:39:44;;;;;;;6.30;3.40;;;;;;;;;;4845904;29;20394;-86
2021/09/05 12:42:10;;;;;;;6.53;3.15;;;;;;;;;;4845001;29;20033;-86
2021/09/05 12:44:40;;;;;;;;;;;;;;;;;;4845538;29;20458;-86
2021/09/05 12:47:05;;;;;;;5.85;3.00;;;;;;;;;;4845353;29;19912;-85
2021/09/05 12:49:30;;;;;;;5.03;3.17;;;;;;;;;;4845457;29;20550;-86
2021/09/05 12:51:57;;;;;;;5.37;3.30;;;;;;;;;;4844817;29;20029;-86
2021/09/05 12:54:24;;;;;;;7.90;3.33;;;;;;;;;;4845103;29;20021;-86
2021/09/05 12:56:49;;;;;;;10.02;3.30;;;;;;;;;;4845353;29;20069;-86
2021/09/05 12:59:15;;;;;;;5.60;3.38;;;;;;;;;;4845113;29;20176;-86
2021/09/05 13:01:41;;;;;;;7.13;3.40;;;;;;;;;;4844863;29;20036;-86
2021/09/05 13:04:06;;;;;;;4.93;3.20;;;;;;;;;;4845273;29;20062;-86
2021/09/05 13:06:31;;;;;;;6.07;3.50;;;;;;;;;;4845220;29;20117;-85
2021/09/05 13:08:57;;;;;;;6.63;3.77;;;;;;;;;;4845039;29;20028;-85
2021/09/05 13:11:24;;;;;;;7.40;3.58;;;;;;;;;;4844970;29;20371;-86
2021/09/05 13:13:50;;;;;;;5.75;3.30;;;;;;;;;;4845168;29;20036;-85
2021/09/05 13:16:15;;;;;;;6.85;3.60;;;;;;;;;;4844726;29;20497;-86
2021/09/05 13:18:42;;;;;;;7.20;4.00;;;;;;;;;;4845216;29;20037;-86
2021/09/05 13:21:10;;;;;;;5.70;3.20;;;;;;;;;;4844841;29;20036;-86
2021/09/05 13:23:35;;;;;;;5.93;3.20;;;;;;;;;;4845482;29;20029;-86
2021/09/05 13:26:01;;;;;;;5.40;3.20;;;;;;;;;;4844871;29;20562;-86
2021/09/05 13:28:26;;;;;;;5.47;3.10;;;;;;;;;;4845175;29;20032;-86
2021/09/05 13:30:51;;;;;;;7.00;3.40;;;;;;;;;;4844646;29;20178;-86
2021/09/05 13:33:17;;;;;;;5.97;3.37;;;;;;;;;;4844544;29;20405;-86
2021/09/05 13:35:42;;;;;;;5.93;3.40;;;;;;;;;;4844739;29;20025;-86
2021/09/05 13:38:24;;;;;;;5.67;3.40;;;;;;;;;;4832709;29;20033;-86
2021/09/05 13:40:49;;;;;;;6.05;2.90;;;;;;;;;;4876410;29;20044;-86
2021/09/05 13:43:15;;;;;;;4.90;2.67;;;;;;;;;;4846694;29;20021;-86
2021/09/05 13:45:42;;;;;;;5.60;2.60;;;;;;;;;;4832361;29;20040;-86
2021/09/05 13:48:07;;;;;;;4.90;2.70;;;;;;;;;;4848018;29;20037;-86
2021/09/05 13:50:33;;;;;;;6.17;2.73;;;;;;;;;;4847502;29;20278;-86
2021/09/05 13:52:58;;;;;;;4.90;2.90;;;;;;;;;;4846087;29;20033;-86
2021/09/05 13:55:23;;;;;;;5.20;2.70;;;;;;;;;;4846612;29;20035;-86
2021/09/05 13:57:49;;;;;;;5.03;2.77;;;;;;;;;;4831774;29;20035;-86
2021/09/05 14:00:15;;;;;;;5.90;2.90;;;;;;;;;;4847080;29;20579;-85
2021/09/05 14:02:40;;;;;;;6.82;3.00;;;;;;;;;;4831176;29;20025;-86
2021/09/05 14:05:06;;;;;;;7.67;2.80;;;;;;;;;;4847637;29;20029;-86
2021/09/05 14:07:31;;;;;;;8.05;3.10;;;;;;;;;;4831724;29;20154;-86
2021/09/05 14:09:57;;;;;;;6.43;3.10;;;;;;;;;;4831986;29;20052;-86
2021/09/05 14:12:22;;;;;;;5.33;3.13;;;;;;;;;;4831334;29;20462;-86
2021/09/05 14:14:47;;;;;;;5.90;3.10;;;;;;;;;;4831773;29;20032;-86
2021/09/05 14:17:13;;;;;;;5.67;3.00;;;;;;;;;;4831051;29;20104;-85
2021/09/05 14:19:39;;;;;;;5.17;3.10;;;;;;;;;;4846864;29;20124;-85
2021/09/05 14:22:05;;;;;;;;;;;;;;;;;;4847245;29;20025;-86
2021/09/05 14:24:30;;;;;;;5.70;2.70;;;;;;;;;;4846349;29;19923;-86
2021/09/05 14:27:05;;;;;;;5.20;2.80;;;;;;;;;;4846483;29;20109;-86
2021/09/05 14:32:33;;;;;;;5.82;2.92;;;;;;;;;;4811179;29;20114;-86
2021/09/05 14:47:56;;;;;;;6.45;3.45;;;;;;;;;;4826361;29;20052;-86
2021/09/05 14:49:23;;;;;;;5.63;3.28;;;;;;;;;;4849993;29;20117;-86
2021/09/05 14:56:51;;;;;;;7.50;3.30;;;;;;;;;;4849086;29;20041;-86
2021/09/05 14:59:41;;;;;;;6.97;3.33;;;;;;;;;;4846227;29;20029;-86
2021/09/05 15:02:10;;;;;;;6.00;3.40;;;;;;;;;;4846797;29;20029;-86
2021/09/05 15:05:07;;;;;;;5.55;3.10;;;;;;;;;;4841750;29;20034;-87
2021/09/05 15:12:52;;;;;;;5.13;2.90;;;;;;;;;;4852012;29;20092;-86
2021/09/05 15:15:17;;;;;;;5.33;2.93;;;;;;;;;;4847060;29;20025;-86
2021/09/05 15:17:42;;;;;;;5.10;2.53;;;;;;;;;;4847050;29;20055;-86
2021/09/05 15:20:10;;;;;;;4.40;2.50;;;;;;;;;;4847055;29;20033;-86
2021/09/05 15:22:38;;;;;;;5.20;3.00;;;;;;;;;;4831941;29;20041;-85
2021/09/05 15:25:04;;;;;;;5.55;2.95;;;;;;;;;;4847524;29;20021;-86
2021/09/05 15:27:38;;;;;;;5.55;3.03;;;;;;;;;;4831650;29;20033;-86
2021/09/05 15:38:24;;;;;;;5.70;3.17;;;;;;;;;;4851887;29;20037;-86
2021/09/05 15:56:48;;;;;;;6.40;3.13;;;;;;;;;;4848708;29;20029;-83
2021/09/05 16:07:00;;;;;;;5.83;3.20;;;;;;;;;;4847225;29;20033;-84
2021/09/05 16:17:38;;;;;;;5.68;2.80;;;;;;;;;;4852292;29;20573;-84
2021/09/05 16:20:04;;;;;;;5.10;2.80;;;;;;;;;;4848011;29;20025;-85
2021/09/05 16:22:29;;;;;;;;;;;;;;;;;;4831320;29;20029;-83
2021/09/05 16:24:54;;;;;;;7.17;2.93;;;;;;;;;;4860149;29;19915;-83
2021/09/05 16:27:23;;;;;;;6.03;3.00;;;;;;;;;;4843759;29;20043;-83
2021/09/05 16:30:17;;;;;;;5.32;2.75;;;;;;;;;;4830251;29;20080;-83
2021/09/05 16:40:39;;;;;;;4.32;2.70;;;;;;;;;;4849539;29;20236;-83
2021/09/05 16:43:05;;;;;;;6.50;3.00;;;;;;;;;;4843866;29;20149;-83
2021/09/05 16:45:31;;;;;;;5.97;3.08;;;;;;;;;;4844602;29;20025;-83
2021/09/05 16:47:57;;;;;;;6.72;2.75;;;;;;;;;;4844969;29;20112;-83
2021/09/05 16:50:23;;;;;;;5.82;3.22;;;;;;;;;;4813199;29;20033;-83
2021/09/05 16:52:48;;;;;;;5.40;2.90;;;;;;;;;;4841350;29;20172;-83
2021/09/05 16:55:14;;;;;;;6.87;3.20;;;;;;;;;;4841115;29;20142;-83
2021/09/05 16:57:39;;;;;;;8.53;2.83;;;;;;;;;;4837547;29;20056;-83
2021/09/05 17:00:06;;;;;;;6.53;3.20;;;;;;;;;;4843846;29;20120;-84
2021/09/05 17:02:31;;;;;;;6.30;2.78;;;;;;;;;;4828429;29;20033;-84
2021/09/05 17:04:56;;;;;;;6.57;3.20;;;;;;;;;;4844283;29;20388;-83
2021/09/05 17:07:22;;;;;;;6.77;3.20;;;;;;;;;;4836088;29;20040;-83
2021/09/05 17:09:47;;;;;;;4.67;2.83;;;;;;;;;;4844511;29;20029;-83
2021/09/05 17:12:14;;;;;;;5.63;2.70;;;;;;;;;;4846418;29;20399;-83
2021/09/05 17:14:39;;;;;;;6.35;2.97;;;;;;;;;;4848311;29;20037;-83
2021/09/05 17:17:04;;;;;;;6.47;3.27;;;;;;;;;;4860999;23;20758;-83
2021/09/05 17:19:30;;;;;;;5.40;3.23;;;;;;;;;;4864571;29;20045;-83
2021/09/05 17:21:58;;;;;;;5.70;3.20;;;;;;;;;;4859985;29;20040;-85
2021/09/05 17:24:24;;;;;;;7.93;3.17;;;;;;;;;;4845036;29;20030;-84
2021/09/05 17:26:49;;;;;;;5.87;3.10;;;;;;;;;;4862430;29;20025;-85
